sensor_id;sensor_type;location;lat;lon;timestamp;temperature;humidity
11736;DHT22;5924;51.398;7.088;2023-09-08T00:00:49;15.00;99.90
11736;DHT22;5924;51.398;7.088;2023-09-08T00:03:15;13.80;99.90
11736;DHT22;5924;51.398;7.088;2023-09-08T00:05:41;15.00;99.90
11736;DHT22;5924;51.398;7.088;2023-09-08T00:08:07;15.00;99.90
11736;DHT22;5924;51.398;7.088;2023-09-08T00:10:32;14.90;99.90
11736;DHT22;5924;51.398;7.088;2023-09-08T00:12:58;14.80;99.90
11736;DHT22;5924;51.398;7.088;2023-09-08T00:15:24;14.80;99.90
11736;DHT22;5924;51.398;7.088;2023-09-08T00:17:49;14.80;99.90
11736;DHT22;5924;51.398;7.088;2023-09-08T00:20:15;14.70;99.90
11736;DHT22;5924;51.398;7.088;2023-09-08T00:22:41;14.70;99.90
11736;DHT22;5924;51.398;7.088;2023-09-08T00:25:06;14.70;99.90
11736;DHT22;5924;51.398;7.088;2023-09-08T00:27:32;14.70;99.90
11736;DHT22;5924;51.398;7.088;2023-09-08T00:29:58;14.60;99.90
11736;DHT22;5924;51.398;7.088;2023-09-08T00:32:27;13.60;99.90
11736;DHT22;5924;51.398;7.088;2023-09-08T00:34:52;14.60;99.90
11736;DHT22;5924;51.398;7.088;2023-09-08T00:37:18;14.50;99.90
11736;DHT22;5924;51.398;7.088;2023-09-08T00:39:44;12.50;99.90
11736;DHT22;5924;51.398;7.088;2023-09-08T00:42:09;14.50;99.90
11736;DHT22;5924;51.398;7.088;2023-09-08T00:44:35;14.50;99.90
11736;DHT22;5924;51.398;7.088;2023-09-08T00:47:01;14.50;99.90
11736;DHT22;5924;51.398;7.088;2023-09-08T00:49:26;14.40;99.90
11736;DHT22;5924;51.398;7.088;2023-09-08T00:51:53;14.40;99.90
11736;DHT22;5924;51.398;7.088;2023-09-08T00:54:20;14.40;99.90
11736;DHT22;5924;51.398;7.088;2023-09-08T00:56:46;14.40;99.90
11736;DHT22;5924;51.398;7.088;2023-09-08T00:59:13;14.40;99.90
11736;DHT22;5924;51.398;7.088;2023-09-08T01:01:39;14.30;99.90
11736;DHT22;5924;51.398;7.088;2023-09-08T01:04:05;14.30;99.90
11736;DHT22;5924;51.398;7.088;2023-09-08T01:06:31;14.30;99.90
11736;DHT22;5924;51.398;7.088;2023-09-08T01:08:58;14.30;99.90
11736;DHT22;5924;51.398;7.088;2023-09-08T01:11:25;14.20;99.90
11736;DHT22;5924;51.398;7.088;2023-09-08T01:13:51;14.20;99.90
11736;DHT22;5924;51.398;7.088;2023-09-08T01:16:17;14.20;99.90
11736;DHT22;5924;51.398;7.088;2023-09-08T01:18:44;14.10;99.90
11736;DHT22;5924;51.398;7.088;2023-09-08T01:26:41;14.10;99.90
11736;DHT22;5924;51.398;7.088;2023-09-08T01:29:09;14.10;99.90
11736;DHT22;5924;51.398;7.088;2023-09-08T01:31:36;14.10;99.90
11736;DHT22;5924;51.398;7.088;2023-09-08T01:34:04;14.10;99.90
11736;DHT22;5924;51.398;7.088;2023-09-08T01:36:33;14.00;99.90
11736;DHT22;5924;51.398;7.088;2023-09-08T01:39:00;14.00;99.90
11736;DHT22;5924;51.398;7.088;2023-09-08T01:41:25;14.00;99.90
11736;DHT22;5924;51.398;7.088;2023-09-08T01:43:51;13.90;99.90
11736;DHT22;5924;51.398;7.088;2023-09-08T01:46:16;13.90;99.90
11736;DHT22;5924;51.398;7.088;2023-09-08T01:48:42;13.80;99.90
11736;DHT22;5924;51.398;7.088;2023-09-08T01:51:08;13.80;99.90
11736;DHT22;5924;51.398;7.088;2023-09-08T01:53:34;13.80;99.90
11736;DHT22;5924;51.398;7.088;2023-09-08T01:55:59;13.80;99.90
11736;DHT22;5924;51.398;7.088;2023-09-08T01:58:25;13.80;99.90
11736;DHT22;5924;51.398;7.088;2023-09-08T02:00:51;13.80;99.90
11736;DHT22;5924;51.398;7.088;2023-09-08T02:03:17;13.80;99.90
11736;DHT22;5924;51.398;7.088;2023-09-08T02:05:43;13.80;99.90
11736;DHT22;5924;51.398;7.088;2023-09-08T02:08:09;13.80;99.90
11736;DHT22;5924;51.398;7.088;2023-09-08T02:10:35;13.70;99.90
11736;DHT22;5924;51.398;7.088;2023-09-08T02:13:01;13.70;99.90
11736;DHT22;5924;51.398;7.088;2023-09-08T02:15:26;13.70;99.90
11736;DHT22;5924;51.398;7.088;2023-09-08T02:17:56;12.50;99.90
11736;DHT22;5924;51.398;7.088;2023-09-08T02:20:22;13.60;99.90
11736;DHT22;5924;51.398;7.088;2023-09-08T02:22:53;13.60;99.90
11736;DHT22;5924;51.398;7.088;2023-09-08T02:25:19;13.60;99.90
11736;DHT22;5924;51.398;7.088;2023-09-08T02:27:44;13.60;99.90
11736;DHT22;5924;51.398;7.088;2023-09-08T02:30:10;13.60;99.90
11736;DHT22;5924;51.398;7.088;2023-09-08T02:32:36;13.50;99.90
11736;DHT22;5924;51.398;7.088;2023-09-08T02:35:01;13.60;99.90
11736;DHT22;5924;51.398;7.088;2023-09-08T02:37:27;13.50;99.90
11736;DHT22;5924;51.398;7.088;2023-09-08T02:39:53;13.50;99.90
11736;DHT22;5924;51.398;7.088;2023-09-08T02:42:18;13.50;99.90
11736;DHT22;5924;51.398;7.088;2023-09-08T02:44:44;13.40;99.90
11736;DHT22;5924;51.398;7.088;2023-09-08T02:47:10;13.40;99.90
11736;DHT22;5924;51.398;7.088;2023-09-08T02:49:35;13.40;99.90
11736;DHT22;5924;51.398;7.088;2023-09-08T02:52:01;13.40;99.90
11736;DHT22;5924;51.398;7.088;2023-09-08T02:54:27;13.40;99.90
11736;DHT22;5924;51.398;7.088;2023-09-08T02:56:52;13.40;99.90
11736;DHT22;5924;51.398;7.088;2023-09-08T02:59:18;13.50;99.90
11736;DHT22;5924;51.398;7.088;2023-09-08T03:01:44;13.50;99.90
11736;DHT22;5924;51.398;7.088;2023-09-08T03:04:09;13.40;99.90
11736;DHT22;5924;51.398;7.088;2023-09-08T03:06:35;13.40;99.90
11736;DHT22;5924;51.398;7.088;2023-09-08T03:09:00;13.40;99.90
11736;DHT22;5924;51.398;7.088;2023-09-08T03:11:26;13.40;99.90
11736;DHT22;5924;51.398;7.088;2023-09-08T03:13:52;13.30;99.90
11736;DHT22;5924;51.398;7.088;2023-09-08T03:16:17;13.40;99.90
11736;DHT22;5924;51.398;7.088;2023-09-08T03:18:43;13.30;99.90
11736;DHT22;5924;51.398;7.088;2023-09-08T03:21:08;13.30;99.90
11736;DHT22;5924;51.398;7.088;2023-09-08T03:23:38;13.30;99.90
11736;DHT22;5924;51.398;7.088;2023-09-08T03:26:04;13.30;99.90
11736;DHT22;5924;51.398;7.088;2023-09-08T03:28:30;13.20;99.90
11736;DHT22;5924;51.398;7.088;2023-09-08T03:30:56;13.20;99.90
11736;DHT22;5924;51.398;7.088;2023-09-08T03:33:22;13.30;99.90
11736;DHT22;5924;51.398;7.088;2023-09-08T03:35:47;13.30;99.90
11736;DHT22;5924;51.398;7.088;2023-09-08T03:38:13;13.20;99.90
11736;DHT22;5924;51.398;7.088;2023-09-08T03:40:38;13.30;99.90
11736;DHT22;5924;51.398;7.088;2023-09-08T03:43:04;13.20;99.90
11736;DHT22;5924;51.398;7.088;2023-09-08T03:45:30;13.20;99.90
11736;DHT22;5924;51.398;7.088;2023-09-08T03:47:55;13.20;99.90
11736;DHT22;5924;51.398;7.088;2023-09-08T03:50:21;13.10;99.90
11736;DHT22;5924;51.398;7.088;2023-09-08T03:52:47;13.10;99.90
11736;DHT22;5924;51.398;7.088;2023-09-08T03:55:12;13.10;99.90
11736;DHT22;5924;51.398;7.088;2023-09-08T03:57:38;13.10;99.90
11736;DHT22;5924;51.398;7.088;2023-09-08T04:00:04;13.10;99.90
11736;DHT22;5924;51.398;7.088;2023-09-08T04:02:31;13.00;99.90
11736;DHT22;5924;51.398;7.088;2023-09-08T04:04:57;13.10;99.90
11736;DHT22;5924;51.398;7.088;2023-09-08T04:07:23;13.10;99.90
11736;DHT22;5924;51.398;7.088;2023-09-08T04:09:48;13.00;99.90
11736;DHT22;5924;51.398;7.088;2023-09-08T04:12:14;13.00;99.90
11736;DHT22;5924;51.398;7.088;2023-09-08T04:14:39;13.00;99.90
11736;DHT22;5924;51.398;7.088;2023-09-08T04:17:05;12.90;99.90
11736;DHT22;5924;51.398;7.088;2023-09-08T04:19:31;12.90;99.90
11736;DHT22;5924;51.398;7.088;2023-09-08T04:21:57;13.00;99.90
11736;DHT22;5924;51.398;7.088;2023-09-08T04:24:22;12.90;99.90
11736;DHT22;5924;51.398;7.088;2023-09-08T04:26:48;12.90;99.90
11736;DHT22;5924;51.398;7.088;2023-09-08T04:29:13;12.90;99.90
11736;DHT22;5924;51.398;7.088;2023-09-08T04:31:39;12.90;99.90
11736;DHT22;5924;51.398;7.088;2023-09-08T04:34:05;12.90;99.90
11736;DHT22;5924;51.398;7.088;2023-09-08T04:36:30;12.90;99.90
11736;DHT22;5924;51.398;7.088;2023-09-08T04:38:56;12.80;99.90
11736;DHT22;5924;51.398;7.088;2023-09-08T04:41:22;12.80;99.90
11736;DHT22;5924;51.398;7.088;2023-09-08T04:43:47;12.80;99.90
11736;DHT22;5924;51.398;7.088;2023-09-08T04:46:13;12.80;99.90
11736;DHT22;5924;51.398;7.088;2023-09-08T04:48:39;12.80;99.90
11736;DHT22;5924;51.398;7.088;2023-09-08T04:51:04;12.70;99.90
11736;DHT22;5924;51.398;7.088;2023-09-08T04:53:30;12.70;99.90
11736;DHT22;5924;51.398;7.088;2023-09-08T04:55:55;12.80;99.90
11736;DHT22;5924;51.398;7.088;2023-09-08T04:58:24;12.80;99.90
11736;DHT22;5924;51.398;7.088;2023-09-08T05:00:51;12.70;99.90
11736;DHT22;5924;51.398;7.088;2023-09-08T05:03:16;12.70;99.90
11736;DHT22;5924;51.398;7.088;2023-09-08T05:05:42;12.80;99.90
11736;DHT22;5924;51.398;7.088;2023-09-08T05:08:07;12.80;99.90
11736;DHT22;5924;51.398;7.088;2023-09-08T05:10:33;12.80;99.90
11736;DHT22;5924;51.398;7.088;2023-09-08T05:12:59;12.70;99.90
11736;DHT22;5924;51.398;7.088;2023-09-08T05:15:24;12.80;99.90
11736;DHT22;5924;51.398;7.088;2023-09-08T05:17:51;12.80;99.90
11736;DHT22;5924;51.398;7.088;2023-09-08T05:20:16;12.80;99.90
11736;DHT22;5924;51.398;7.088;2023-09-08T05:22:42;12.80;99.90
11736;DHT22;5924;51.398;7.088;2023-09-08T05:25:08;12.80;99.90
11736;DHT22;5924;51.398;7.088;2023-09-08T05:27:34;12.80;99.90
11736;DHT22;5924;51.398;7.088;2023-09-08T05:29:59;12.80;99.90
11736;DHT22;5924;51.398;7.088;2023-09-08T05:32:25;12.90;99.90
11736;DHT22;5924;51.398;7.088;2023-09-08T05:34:50;12.90;99.90
11736;DHT22;5924;51.398;7.088;2023-09-08T05:37:16;12.90;99.90
11736;DHT22;5924;51.398;7.088;2023-09-08T05:39:42;13.00;99.90
11736;DHT22;5924;51.398;7.088;2023-09-08T05:42:07;13.00;99.90
11736;DHT22;5924;51.398;7.088;2023-09-08T05:44:33;13.00;99.90
11736;DHT22;5924;51.398;7.088;2023-09-08T05:46:58;13.10;99.90
11736;DHT22;5924;51.398;7.088;2023-09-08T05:49:24;13.10;99.90
11736;DHT22;5924;51.398;7.088;2023-09-08T05:51:50;13.10;99.90
11736;DHT22;5924;51.398;7.088;2023-09-08T05:54:15;13.10;99.90
11736;DHT22;5924;51.398;7.088;2023-09-08T05:56:44;13.20;99.90
11736;DHT22;5924;51.398;7.088;2023-09-08T05:59:10;13.20;99.90
11736;DHT22;5924;51.398;7.088;2023-09-08T06:01:36;13.20;99.90
11736;DHT22;5924;51.398;7.088;2023-09-08T06:04:02;13.30;99.90
11736;DHT22;5924;51.398;7.088;2023-09-08T06:06:28;13.30;99.90
11736;DHT22;5924;51.398;7.088;2023-09-08T06:08:54;13.30;99.90
11736;DHT22;5924;51.398;7.088;2023-09-08T06:11:20;13.40;99.90
11736;DHT22;5924;51.398;7.088;2023-09-08T06:13:45;13.40;99.90
11736;DHT22;5924;51.398;7.088;2023-09-08T06:16:11;13.50;99.90
11736;DHT22;5924;51.398;7.088;2023-09-08T06:18:36;13.50;99.90
11736;DHT22;5924;51.398;7.088;2023-09-08T06:21:08;13.60;99.90
11736;DHT22;5924;51.398;7.088;2023-09-08T06:23:35;13.70;99.90
11736;DHT22;5924;51.398;7.088;2023-09-08T06:26:01;13.70;99.90
11736;DHT22;5924;51.398;7.088;2023-09-08T06:28:27;13.80;99.90
11736;DHT22;5924;51.398;7.088;2023-09-08T06:30:54;13.80;99.90
11736;DHT22;5924;51.398;7.088;2023-09-08T06:33:19;13.90;99.90
11736;DHT22;5924;51.398;7.088;2023-09-08T06:35:46;14.00;99.90
11736;DHT22;5924;51.398;7.088;2023-09-08T06:38:12;14.10;99.90
11736;DHT22;5924;51.398;7.088;2023-09-08T06:40:38;14.10;99.90
11736;DHT22;5924;51.398;7.088;2023-09-08T06:43:04;14.20;99.90
11736;DHT22;5924;51.398;7.088;2023-09-08T06:45:29;14.40;99.90
11736;DHT22;5924;51.398;7.088;2023-09-08T06:47:55;14.50;99.90
11736;DHT22;5924;51.398;7.088;2023-09-08T06:50:23;14.50;99.90
11736;DHT22;5924;51.398;7.088;2023-09-08T06:52:50;14.70;99.90
11736;DHT22;5924;51.398;7.088;2023-09-08T06:55:16;14.80;99.90
11736;DHT22;5924;51.398;7.088;2023-09-08T06:57:45;14.90;99.90
11736;DHT22;5924;51.398;7.088;2023-09-08T07:00:12;15.00;99.90
11736;DHT22;5924;51.398;7.088;2023-09-08T07:02:39;15.20;99.90
11736;DHT22;5924;51.398;7.088;2023-09-08T07:05:04;15.40;99.90
11736;DHT22;5924;51.398;7.088;2023-09-08T07:07:37;15.50;99.90
11736;DHT22;5924;51.398;7.088;2023-09-08T07:10:03;15.70;99.90
11736;DHT22;5924;51.398;7.088;2023-09-08T07:12:29;15.90;99.90
11736;DHT22;5924;51.398;7.088;2023-09-08T07:14:55;16.00;99.90
11736;DHT22;5924;51.398;7.088;2023-09-08T07:17:21;16.30;99.90
11736;DHT22;5924;51.398;7.088;2023-09-08T07:19:51;16.50;99.90
11736;DHT22;5924;51.398;7.088;2023-09-08T07:22:17;16.70;99.90
11736;DHT22;5924;51.398;7.088;2023-09-08T07:24:43;16.90;99.90
11736;DHT22;5924;51.398;7.088;2023-09-08T07:27:09;17.20;99.90
11736;DHT22;5924;51.398;7.088;2023-09-08T07:29:35;17.30;99.90
11736;DHT22;5924;51.398;7.088;2023-09-08T07:32:02;17.50;99.90
11736;DHT22;5924;51.398;7.088;2023-09-08T07:34:28;17.70;99.90
11736;DHT22;5924;51.398;7.088;2023-09-08T07:36:53;17.90;99.90
11736;DHT22;5924;51.398;7.088;2023-09-08T07:39:19;18.10;99.90
11736;DHT22;5924;51.398;7.088;2023-09-08T07:41:45;18.50;99.90
11736;DHT22;5924;51.398;7.088;2023-09-08T07:44:12;18.60;99.90
11736;DHT22;5924;51.398;7.088;2023-09-08T07:46:38;18.80;99.90
11736;DHT22;5924;51.398;7.088;2023-09-08T07:49:04;19.10;99.90
11736;DHT22;5924;51.398;7.088;2023-09-08T07:51:30;19.40;99.90
11736;DHT22;5924;51.398;7.088;2023-09-08T07:53:56;19.70;99.90
11736;DHT22;5924;51.398;7.088;2023-09-08T07:56:22;19.90;99.90
11736;DHT22;5924;51.398;7.088;2023-09-08T07:58:47;20.10;99.90
11736;DHT22;5924;51.398;7.088;2023-09-08T08:01:13;20.20;99.90
11736;DHT22;5924;51.398;7.088;2023-09-08T08:03:39;20.30;99.90
11736;DHT22;5924;51.398;7.088;2023-09-08T08:06:05;20.40;99.90
11736;DHT22;5924;51.398;7.088;2023-09-08T08:08:31;20.60;99.90
11736;DHT22;5924;51.398;7.088;2023-09-08T08:10:57;20.70;99.90
11736;DHT22;5924;51.398;7.088;2023-09-08T08:13:23;20.90;99.90
11736;DHT22;5924;51.398;7.088;2023-09-08T08:15:49;21.00;99.90
11736;DHT22;5924;51.398;7.088;2023-09-08T08:18:15;21.20;99.90
11736;DHT22;5924;51.398;7.088;2023-09-08T08:20:41;21.30;99.90
11736;DHT22;5924;51.398;7.088;2023-09-08T08:23:07;21.50;99.90
11736;DHT22;5924;51.398;7.088;2023-09-08T08:25:33;21.70;99.90
11736;DHT22;5924;51.398;7.088;2023-09-08T08:27:59;21.80;99.90
11736;DHT22;5924;51.398;7.088;2023-09-08T08:30:26;22.00;99.90
11736;DHT22;5924;51.398;7.088;2023-09-08T08:32:52;22.30;99.90
11736;DHT22;5924;51.398;7.088;2023-09-08T08:35:19;22.50;99.90
11736;DHT22;5924;51.398;7.088;2023-09-08T08:37:45;22.70;99.90
11736;DHT22;5924;51.398;7.088;2023-09-08T08:40:11;22.90;99.90
11736;DHT22;5924;51.398;7.088;2023-09-08T08:42:38;23.10;99.90
11736;DHT22;5924;51.398;7.088;2023-09-08T08:45:04;23.30;99.90
11736;DHT22;5924;51.398;7.088;2023-09-08T08:47:31;23.40;99.90
11736;DHT22;5924;51.398;7.088;2023-09-08T08:49:58;23.60;99.90
11736;DHT22;5924;51.398;7.088;2023-09-08T08:52:27;23.90;99.90
11736;DHT22;5924;51.398;7.088;2023-09-08T08:54:54;24.00;99.90
11736;DHT22;5924;51.398;7.088;2023-09-08T08:57:21;24.20;99.90
11736;DHT22;5924;51.398;7.088;2023-09-08T08:59:47;24.30;99.90
11736;DHT22;5924;51.398;7.088;2023-09-08T09:02:14;24.50;99.90
11736;DHT22;5924;51.398;7.088;2023-09-08T09:04:40;24.70;99.90
11736;DHT22;5924;51.398;7.088;2023-09-08T09:07:07;24.80;99.90
11736;DHT22;5924;51.398;7.088;2023-09-08T09:09:33;25.00;99.90
11736;DHT22;5924;51.398;7.088;2023-09-08T09:11:59;25.10;99.90
11736;DHT22;5924;51.398;7.088;2023-09-08T09:14:27;25.30;99.90
11736;DHT22;5924;51.398;7.088;2023-09-08T09:16:56;25.40;99.90
11736;DHT22;5924;51.398;7.088;2023-09-08T09:19:23;25.50;99.90
11736;DHT22;5924;51.398;7.088;2023-09-08T09:21:54;25.60;99.90
11736;DHT22;5924;51.398;7.088;2023-09-08T09:24:40;25.80;99.90
11736;DHT22;5924;51.398;7.088;2023-09-08T09:27:07;25.90;99.90
11736;DHT22;5924;51.398;7.088;2023-09-08T09:29:34;26.10;99.90
11736;DHT22;5924;51.398;7.088;2023-09-08T09:34:29;26.30;99.90
11736;DHT22;5924;51.398;7.088;2023-09-08T09:36:55;26.40;99.90
11736;DHT22;5924;51.398;7.088;2023-09-08T09:39:22;26.50;99.90
11736;DHT22;5924;51.398;7.088;2023-09-08T09:41:49;26.60;99.90
11736;DHT22;5924;51.398;7.088;2023-09-08T09:44:18;26.70;99.90
11736;DHT22;5924;51.398;7.088;2023-09-08T09:46:45;26.70;99.90
11736;DHT22;5924;51.398;7.088;2023-09-08T09:49:15;26.80;99.90
11736;DHT22;5924;51.398;7.088;2023-09-08T09:51:48;27.70;99.90
11736;DHT22;5924;51.398;7.088;2023-09-08T09:54:16;26.90;99.90
11736;DHT22;5924;51.398;7.088;2023-09-08T09:56:43;26.80;99.90
11736;DHT22;5924;51.398;7.088;2023-09-08T09:59:10;27.00;99.90
11736;DHT22;5924;51.398;7.088;2023-09-08T10:01:38;27.00;99.90
11736;DHT22;5924;51.398;7.088;2023-09-08T10:04:05;27.10;99.90
11736;DHT22;5924;51.398;7.088;2023-09-08T10:06:32;27.30;99.90
11736;DHT22;5924;51.398;7.088;2023-09-08T10:09:00;27.30;99.90
11736;DHT22;5924;51.398;7.088;2023-09-08T10:11:29;27.40;99.90
11736;DHT22;5924;51.398;7.088;2023-09-08T10:13:58;27.40;99.90
11736;DHT22;5924;51.398;7.088;2023-09-08T10:16:27;27.40;99.90
11736;DHT22;5924;51.398;7.088;2023-09-08T10:18:55;27.50;99.90
11736;DHT22;5924;51.398;7.088;2023-09-08T10:21:23;27.50;99.90
11736;DHT22;5924;51.398;7.088;2023-09-08T10:23:57;27.60;99.90
11736;DHT22;5924;51.398;7.088;2023-09-08T10:26:27;27.70;99.90
11736;DHT22;5924;51.398;7.088;2023-09-08T10:28:54;27.70;99.90
11736;DHT22;5924;51.398;7.088;2023-09-08T10:31:25;27.80;99.90
11736;DHT22;5924;51.398;7.088;2023-09-08T10:33:53;27.80;99.90
11736;DHT22;5924;51.398;7.088;2023-09-08T10:36:19;27.80;99.90
11736;DHT22;5924;51.398;7.088;2023-09-08T10:38:45;27.90;99.90
11736;DHT22;5924;51.398;7.088;2023-09-08T10:44:06;28.10;99.90
11736;DHT22;5924;51.398;7.088;2023-09-08T10:46:33;28.20;99.90
11736;DHT22;5924;51.398;7.088;2023-09-08T10:49:07;28.30;99.90
11736;DHT22;5924;51.398;7.088;2023-09-08T10:51:33;28.40;99.90
11736;DHT22;5924;51.398;7.088;2023-09-08T10:54:00;28.40;99.90
11736;DHT22;5924;51.398;7.088;2023-09-08T10:56:55;28.40;99.90
11736;DHT22;5924;51.398;7.088;2023-09-08T10:59:28;28.40;99.90
11736;DHT22;5924;51.398;7.088;2023-09-08T11:01:54;28.50;99.90
11736;DHT22;5924;51.398;7.088;2023-09-08T11:04:21;28.50;99.90
11736;DHT22;5924;51.398;7.088;2023-09-08T11:06:46;28.60;99.90
11736;DHT22;5924;51.398;7.088;2023-09-08T11:09:12;28.60;99.90
11736;DHT22;5924;51.398;7.088;2023-09-08T11:11:38;28.60;99.90
11736;DHT22;5924;51.398;7.088;2023-09-08T11:14:04;28.60;99.90
11736;DHT22;5924;51.398;7.088;2023-09-08T11:16:30;28.60;99.90
11736;DHT22;5924;51.398;7.088;2023-09-08T11:18:58;28.70;99.90
11736;DHT22;5924;51.398;7.088;2023-09-08T11:21:24;28.70;99.90
11736;DHT22;5924;51.398;7.088;2023-09-08T11:23:50;28.80;99.90
11736;DHT22;5924;51.398;7.088;2023-09-08T11:26:15;28.80;99.90
11736;DHT22;5924;51.398;7.088;2023-09-08T11:28:42;28.80;99.90
11736;DHT22;5924;51.398;7.088;2023-09-08T11:31:08;28.80;99.90
11736;DHT22;5924;51.398;7.088;2023-09-08T11:33:35;28.90;99.90
11736;DHT22;5924;51.398;7.088;2023-09-08T11:36:12;29.00;99.90
11736;DHT22;5924;51.398;7.088;2023-09-08T11:38:38;29.10;99.90
11736;DHT22;5924;51.398;7.088;2023-09-08T11:41:05;29.10;99.90
11736;DHT22;5924;51.398;7.088;2023-09-08T11:43:30;29.20;99.90
11736;DHT22;5924;51.398;7.088;2023-09-08T11:45:58;29.20;99.90
11736;DHT22;5924;51.398;7.088;2023-09-08T11:48:24;29.30;99.90
11736;DHT22;5924;51.398;7.088;2023-09-08T11:50:53;29.40;99.90
11736;DHT22;5924;51.398;7.088;2023-09-08T11:53:21;29.50;99.90
11736;DHT22;5924;51.398;7.088;2023-09-08T11:55:47;29.60;99.90
11736;DHT22;5924;51.398;7.088;2023-09-08T11:58:13;29.50;99.90
11736;DHT22;5924;51.398;7.088;2023-09-08T12:00:40;29.60;99.90
11736;DHT22;5924;51.398;7.088;2023-09-08T12:03:14;29.70;99.90
11736;DHT22;5924;51.398;7.088;2023-09-08T12:05:41;29.70;99.90
11736;DHT22;5924;51.398;7.088;2023-09-08T12:08:07;29.90;99.90
11736;DHT22;5924;51.398;7.088;2023-09-08T12:10:40;29.90;99.90
11736;DHT22;5924;51.398;7.088;2023-09-08T12:13:06;30.10;99.90
11736;DHT22;5924;51.398;7.088;2023-09-08T12:15:37;30.70;99.90
11736;DHT22;5924;51.398;7.088;2023-09-08T12:18:05;31.50;99.90
11736;DHT22;5924;51.398;7.088;2023-09-08T12:20:31;32.30;99.90
11736;DHT22;5924;51.398;7.088;2023-09-08T12:23:01;32.90;99.90
11736;DHT22;5924;51.398;7.088;2023-09-08T12:25:27;33.50;99.10
11736;DHT22;5924;51.398;7.088;2023-09-08T12:27:54;34.30;96.40
11736;DHT22;5924;51.398;7.088;2023-09-08T12:30:22;34.80;94.30
11736;DHT22;5924;51.398;7.088;2023-09-08T12:32:56;35.00;90.90
11736;DHT22;5924;51.398;7.088;2023-09-08T12:35:23;35.30;90.70
11736;DHT22;5924;51.398;7.088;2023-09-08T12:40:22;36.20;88.00
11736;DHT22;5924;51.398;7.088;2023-09-08T12:42:47;36.50;87.00
11736;DHT22;5924;51.398;7.088;2023-09-08T12:45:13;36.60;84.10
11736;DHT22;5924;51.398;7.088;2023-09-08T12:47:39;36.60;83.00
11736;DHT22;5924;51.398;7.088;2023-09-08T12:50:05;36.70;72.90
11736;DHT22;5924;51.398;7.088;2023-09-08T12:52:33;36.90;76.80
11736;DHT22;5924;51.398;7.088;2023-09-08T12:55:02;37.00;77.60
11736;DHT22;5924;51.398;7.088;2023-09-08T12:57:28;37.10;79.30
11736;DHT22;5924;51.398;7.088;2023-09-08T12:59:56;37.30;77.30
11736;DHT22;5924;51.398;7.088;2023-09-08T13:02:21;37.80;77.80
11736;DHT22;5924;51.398;7.088;2023-09-08T13:04:47;38.20;75.60
11736;DHT22;5924;51.398;7.088;2023-09-08T13:07:17;38.20;70.80
11736;DHT22;5924;51.398;7.088;2023-09-08T13:09:44;38.20;71.50
11736;DHT22;5924;51.398;7.088;2023-09-08T13:12:09;38.20;71.90
11736;DHT22;5924;51.398;7.088;2023-09-08T13:14:36;38.50;69.00
11736;DHT22;5924;51.398;7.088;2023-09-08T13:17:03;38.50;67.90
11736;DHT22;5924;51.398;7.088;2023-09-08T13:19:28;38.80;68.30
11736;DHT22;5924;51.398;7.088;2023-09-08T13:21:55;39.10;67.70
11736;DHT22;5924;51.398;7.088;2023-09-08T13:24:20;39.60;67.80
11736;DHT22;5924;51.398;7.088;2023-09-08T13:26:47;39.80;63.30
11736;DHT22;5924;51.398;7.088;2023-09-08T13:29:13;39.80;64.90
11736;DHT22;5924;51.398;7.088;2023-09-08T13:31:39;39.80;66.40
11736;DHT22;5924;51.398;7.088;2023-09-08T13:34:05;39.80;67.20
11736;DHT22;5924;51.398;7.088;2023-09-08T13:36:30;39.80;67.90
11736;DHT22;5924;51.398;7.088;2023-09-08T13:38:56;39.60;65.20
11736;DHT22;5924;51.398;7.088;2023-09-08T13:41:23;39.80;64.90
11736;DHT22;5924;51.398;7.088;2023-09-08T13:43:48;39.90;63.40
11736;DHT22;5924;51.398;7.088;2023-09-08T13:46:14;39.60;62.40
11736;DHT22;5924;51.398;7.088;2023-09-08T13:48:40;39.10;61.30
11736;DHT22;5924;51.398;7.088;2023-09-08T13:51:05;38.90;62.70
11736;DHT22;5924;51.398;7.088;2023-09-08T13:53:31;39.00;64.00
11736;DHT22;5924;51.398;7.088;2023-09-08T13:55:57;39.20;64.70
11736;DHT22;5924;51.398;7.088;2023-09-08T13:58:22;39.30;63.90
11736;DHT22;5924;51.398;7.088;2023-09-08T14:00:48;39.60;63.00
11736;DHT22;5924;51.398;7.088;2023-09-08T14:03:15;39.90;62.90
11736;DHT22;5924;51.398;7.088;2023-09-08T14:05:40;40.00;63.30
11736;DHT22;5924;51.398;7.088;2023-09-08T14:08:06;40.20;61.30
11736;DHT22;5924;51.398;7.088;2023-09-08T14:10:32;40.30;62.50
11736;DHT22;5924;51.398;7.088;2023-09-08T14:12:57;40.20;61.00
11736;DHT22;5924;51.398;7.088;2023-09-08T14:15:23;39.60;60.80
11736;DHT22;5924;51.398;7.088;2023-09-08T14:17:48;38.60;63.00
11736;DHT22;5924;51.398;7.088;2023-09-08T14:20:14;38.00;64.70
11736;DHT22;5924;51.398;7.088;2023-09-08T14:22:40;37.30;66.00
11736;DHT22;5924;51.398;7.088;2023-09-08T14:25:06;36.50;68.10
11736;DHT22;5924;51.398;7.088;2023-09-08T14:27:32;35.80;69.90
11736;DHT22;5924;51.398;7.088;2023-09-08T14:29:59;35.10;72.20
11736;DHT22;5924;51.398;7.088;2023-09-08T14:32:24;34.60;72.60
11736;DHT22;5924;51.398;7.088;2023-09-08T14:34:50;34.10;72.80
11736;DHT22;5924;51.398;7.088;2023-09-08T14:37:16;33.80;73.80
11736;DHT22;5924;51.398;7.088;2023-09-08T14:39:41;33.70;74.60
11736;DHT22;5924;51.398;7.088;2023-09-08T14:42:07;33.60;74.00
11736;DHT22;5924;51.398;7.088;2023-09-08T14:44:33;33.90;74.70
11736;DHT22;5924;51.398;7.088;2023-09-08T14:46:59;34.20;74.00
11736;DHT22;5924;51.398;7.088;2023-09-08T14:49:25;34.20;71.70
11736;DHT22;5924;51.398;7.088;2023-09-08T14:51:50;34.90;73.00
11736;DHT22;5924;51.398;7.088;2023-09-08T14:54:16;35.70;70.00
11736;DHT22;5924;51.398;7.088;2023-09-08T14:56:41;36.80;70.50
11736;DHT22;5924;51.398;7.088;2023-09-08T14:59:08;38.20;67.30
11736;DHT22;5924;51.398;7.088;2023-09-08T15:01:34;38.30;63.00
11736;DHT22;5924;51.398;7.088;2023-09-08T15:04:00;38.20;63.10
11736;DHT22;5924;51.398;7.088;2023-09-08T15:06:25;38.00;64.80
11736;DHT22;5924;51.398;7.088;2023-09-08T15:08:51;37.60;65.30
11736;DHT22;5924;51.398;7.088;2023-09-08T15:11:17;37.60;66.50
11736;DHT22;5924;51.398;7.088;2023-09-08T15:13:42;37.10;65.40
11736;DHT22;5924;51.398;7.088;2023-09-08T15:16:08;36.20;65.80
11736;DHT22;5924;51.398;7.088;2023-09-08T15:18:34;35.60;67.50
11736;DHT22;5924;51.398;7.088;2023-09-08T15:20:59;34.80;68.60
11736;DHT22;5924;51.398;7.088;2023-09-08T15:23:25;34.30;70.60
11736;DHT22;5924;51.398;7.088;2023-09-08T15:25:55;33.70;71.50
11736;DHT22;5924;51.398;7.088;2023-09-08T15:28:21;33.30;72.70
11736;DHT22;5924;51.398;7.088;2023-09-08T15:30:51;33.10;73.70
11736;DHT22;5924;51.398;7.088;2023-09-08T15:33:18;33.20;73.30
11736;DHT22;5924;51.398;7.088;2023-09-08T15:35:46;33.30;74.10
11736;DHT22;5924;51.398;7.088;2023-09-08T15:38:12;33.40;73.50
11736;DHT22;5924;51.398;7.088;2023-09-08T15:40:38;33.50;74.00
11736;DHT22;5924;51.398;7.088;2023-09-08T15:43:04;33.80;73.90
11736;DHT22;5924;51.398;7.088;2023-09-08T15:45:33;33.90;74.80
11736;DHT22;5924;51.398;7.088;2023-09-08T15:47:59;34.40;71.90
11736;DHT22;5924;51.398;7.088;2023-09-08T15:50:26;35.60;71.00
11736;DHT22;5924;51.398;7.088;2023-09-08T15:52:52;36.80;66.60